Meteorología y climatología de Navarra
Datos de la estación - Meteo Navarra

Estación de Goizueta GN

Altitud 142 m.


Datos desde el 14/08/2019 hasta el 15/08/2019 en horario solar
Los datos son PROVISIONALES

Anterior Página 1 de 1 Siguiente Descargar: Formato para Excel 2000 o superior   Formato csv   Formato para OpenOffice Calc
Fecha Temperatura Humedad relativa Radiación global Insolación Precipitación Vel. viento 10 m Vel. viento 10 m Dir. viento 10 m
ºC % W/m² s l/m² m/s km/h º
14/08/2019 0:00 11.2 99 - - - - 0.0 - - - - - -
14/08/2019 0:10 11.0 99 - - - - 0.0 - - - - - -
14/08/2019 0:20 11.0 99 - - - - 0.0 - - - - - -
14/08/2019 0:30 10.9 99 - - - - 0.0 - - - - - -
14/08/2019 0:40 10.7 99 - - - - 0.0 - - - - - -
14/08/2019 0:50 10.5 99 - - - - 0.0 - - - - - -
14/08/2019 1:00 10.5 99 - - - - 0.0 - - - - - -
14/08/2019 1:10 10.4 99 - - - - 0.0 - - - - - -
14/08/2019 1:20 10.6 99 - - - - 0.0 - - - - - -
14/08/2019 1:30 10.3 99 - - - - 0.0 - - - - - -
14/08/2019 1:40 10.3 99 - - - - 0.0 - - - - - -
14/08/2019 1:50 10.4 99 - - - - 0.0 - - - - - -
14/08/2019 2:00 10.3 99 - - - - 0.0 - - - - - -
14/08/2019 2:10 10.2 99 - - - - 0.0 - - - - - -
14/08/2019 2:20 10.1 99 - - - - 0.0 - - - - - -
14/08/2019 2:30 10.0 99 - - - - 0.0 - - - - - -
14/08/2019 2:40 10.0 99 - - - - 0.0 - - - - - -
14/08/2019 2:50 9.8 99 - - - - 0.0 - - - - - -
14/08/2019 3:00 9.8 99 - - - - 0.0 - - - - - -
14/08/2019 3:10 9.6 99 - - - - 0.0 - - - - - -
14/08/2019 3:20 9.6 99 - - - - 0.0 - - - - - -
14/08/2019 3:30 9.6 99 - - - - 0.0 - - - - - -
14/08/2019 3:40 9.6 99 - - - - 0.0 - - - - - -
14/08/2019 3:50 9.8 99 - - - - 0.0 - - - - - -
14/08/2019 4:00 9.9 100 - - - - 0.0 - - - - - -
14/08/2019 4:10 9.8 99 - - - - 0.0 - - - - - -
14/08/2019 4:20 9.8 99 - - - - 0.0 - - - - - -
14/08/2019 4:30 9.8 99 - - - - 0.0 - - - - - -
14/08/2019 4:40 9.9 99 - - - - 0.0 - - - - - -
14/08/2019 4:50 9.9 99 - - - - 0.0 - - - - - -
14/08/2019 5:00 9.8 99 - - - - 0.0 - - - - - -
14/08/2019 5:10 9.8 99 - - - - 0.0 - - - - - -
14/08/2019 5:20 9.8 99 - - - - 0.0 - - - - - -
14/08/2019 5:30 9.9 99 - - - - 0.0 - - - - - -
14/08/2019 5:40 9.9 99 - - - - 0.0 - - - - - -
14/08/2019 5:50 10.0 99 - - - - 0.0 - - - - - -
14/08/2019 6:00 10.0 99 - - - - 0.0 - - - - - -
14/08/2019 6:10 10.2 99 - - - - 0.0 - - - - - -
14/08/2019 6:20 10.2 99 - - - - 0.0 - - - - - -
14/08/2019 6:30 10.2 99 - - - - 0.0 - - - - - -
14/08/2019 6:40 10.3 99 - - - - 0.0 - - - - - -
14/08/2019 6:50 10.3 99 - - - - 0.0 - - - - - -
14/08/2019 7:00 10.5 99 - - - - 0.0 - - - - - -
14/08/2019 7:10 10.8 99 - - - - 0.0 - - - - - -
14/08/2019 7:20 11.7 100 - - - - 0.0 - - - - - -
14/08/2019 7:30 12.5 99 - - - - 0.0 - - - - - -
14/08/2019 7:40 13.2 93 - - - - 0.0 - - - - - -
14/08/2019 7:50 14.1 88 - - - - 0.0 - - - - - -
14/08/2019 8:00 15.1 83 - - - - 0.0 - - - - - -
14/08/2019 8:10 15.3 82 - - - - 0.0 - - - - - -
14/08/2019 8:20 16.0 81 - - - - 0.0 - - - - - -
14/08/2019 8:30 16.7 78 - - - - 0.0 - - - - - -
14/08/2019 8:40 17.9 72 - - - - 0.0 - - - - - -
14/08/2019 8:50 18.5 70 - - - - 0.0 - - - - - -
14/08/2019 9:00 19.2 67 - - - - 0.0 - - - - - -
14/08/2019 9:10 19.8 63 - - - - 0.0 - - - - - -
14/08/2019 9:20 20.3 61 - - - - 0.0 - - - - - -
14/08/2019 9:30 21.1 57 - - - - 0.0 - - - - - -
14/08/2019 9:40 21.9 54 - - - - 0.0 - - - - - -
14/08/2019 9:50 22.5 53 - - - - 0.0 - - - - - -
14/08/2019 10:00 23.0 54 - - - - 0.0 - - - - - -
14/08/2019 10:10 23.5 49 - - - - 0.0 - - - - - -
14/08/2019 10:20 24.0 48 - - - - 0.0 - - - - - -
14/08/2019 10:30 24.4 44 - - - - 0.0 - - - - - -
14/08/2019 10:40 24.9 40 - - - - 0.0 - - - - - -
14/08/2019 10:50 24.9 41 - - - - 0.0 - - - - - -
14/08/2019 11:00 24.9 42 - - - - 0.0 - - - - - -
14/08/2019 11:10 25.3 43 - - - - 0.0 - - - - - -
14/08/2019 11:20 25.4 44 - - - - 0.0 - - - - - -
14/08/2019 11:30 25.2 44 - - - - 0.0 - - - - - -
14/08/2019 11:40 25.4 44 - - - - 0.0 - - - - - -
14/08/2019 11:50 25.6 43 - - - - 0.0 - - - - - -
14/08/2019 12:00 25.8 43 - - - - 0.0 - - - - - -
14/08/2019 12:10 25.6 42 - - - - 0.0 - - - - - -
14/08/2019 12:20 25.8 43 - - - - 0.0 - - - - - -
14/08/2019 12:30 26.1 43 - - - - 0.0 - - - - - -
14/08/2019 12:40 25.9 44 - - - - 0.0 - - - - - -
14/08/2019 12:50 26.1 44 - - - - 0.0 - - - - - -
14/08/2019 13:00 26.4 45 - - - - 0.0 - - - - - -
14/08/2019 13:10 26.3 45 - - - - 0.0 - - - - - -
14/08/2019 13:20 26.3 44 - - - - 0.0 - - - - - -
14/08/2019 13:30 26.2 44 - - - - 0.0 - - - - - -
14/08/2019 13:40 26.4 45 - - - - 0.0 - - - - - -
14/08/2019 13:50 26.3 45 - - - - 0.0 - - - - - -
14/08/2019 14:00 26.1 47 - - - - 0.0 - - - - - -
14/08/2019 14:10 25.8 46 - - - - 0.0 - - - - - -
14/08/2019 14:20 25.9 45 - - - - 0.0 - - - - - -
14/08/2019 14:30 26.1 46 - - - - 0.0 - - - - - -
14/08/2019 14:40 26.0 46 - - - - 0.0 - - - - - -
14/08/2019 14:50 25.9 46 - - - - 0.0 - - - - - -
14/08/2019 15:00 25.8 46 - - - - 0.0 - - - - - -
14/08/2019 15:10 25.5 48 - - - - 0.0 - - - - - -
14/08/2019 15:20 25.6 48 - - - - 0.0 - - - - - -
14/08/2019 15:30 25.1 50 - - - - 0.0 - - - - - -
14/08/2019 15:40 25.2 50 - - - - 0.0 - - - - - -
14/08/2019 15:50 25.3 49 - - - - 0.0 - - - - - -
14/08/2019 16:00 25.1 49 - - - - 0.0 - - - - - -
14/08/2019 16:10 25.0 50 - - - - 0.0 - - - - - -
14/08/2019 16:20 25.0 47 - - - - 0.0 - - - - - -
14/08/2019 16:30 24.8 45 - - - - 0.0 - - - - - -
14/08/2019 16:40 24.1 51 - - - - 0.0 - - - - - -
14/08/2019 16:50 23.8 53 - - - - 0.0 - - - - - -
14/08/2019 17:00 23.3 49 - - - - 0.0 - - - - - -
14/08/2019 17:10 23.1 49 - - - - 0.0 - - - - - -
14/08/2019 17:20 22.6 50 - - - - 0.0 - - - - - -
14/08/2019 17:30 21.9 58 - - - - 0.0 - - - - - -
14/08/2019 17:40 21.5 64 - - - - 0.0 - - - - - -
14/08/2019 17:50 21.5 60 - - - - 0.0 - - - - - -
14/08/2019 18:00 21.5 60 - - - - 0.0 - - - - - -
14/08/2019 18:10 20.9 70 - - - - 0.0 - - - - - -
14/08/2019 18:20 20.5 72 - - - - 0.0 - - - - - -
14/08/2019 18:30 20.6 71 - - - - 0.0 - - - - - -
14/08/2019 18:40 20.5 72 - - - - 0.0 - - - - - -
14/08/2019 18:50 20.3 74 - - - - 0.0 - - - - - -
14/08/2019 19:00 19.9 75 - - - - 0.0 - - - - - -
14/08/2019 19:10 19.8 75 - - - - 0.0 - - - - - -
14/08/2019 19:20 19.5 77 - - - - 0.0 - - - - - -
14/08/2019 19:30 19.4 79 - - - - 0.0 - - - - - -
14/08/2019 19:40 19.3 80 - - - - 0.0 - - - - - -
14/08/2019 19:50 19.1 81 - - - - 0.0 - - - - - -
14/08/2019 20:00 19.0 81 - - - - 0.0 - - - - - -
14/08/2019 20:10 19.0 82 - - - - 0.0 - - - - - -
14/08/2019 20:20 18.9 83 - - - - 0.0 - - - - - -
14/08/2019 20:30 18.8 85 - - - - 0.0 - - - - - -
14/08/2019 20:40 18.8 85 - - - - 0.0 - - - - - -
14/08/2019 20:50 18.6 86 - - - - 0.0 - - - - - -
14/08/2019 21:00 18.5 89 - - - - 0.0 - - - - - -
14/08/2019 21:10 18.1 92 - - - - 0.0 - - - - - -
14/08/2019 21:20 17.8 93 - - - - 0.1 - - - - - -
14/08/2019 21:30 17.6 95 - - - - 0.0 - - - - - -
14/08/2019 21:40 17.5 96 - - - - 0.0 - - - - - -
14/08/2019 21:50 17.5 96 - - - - 0.0 - - - - - -
14/08/2019 22:00 17.5 96 - - - - 0.1 - - - - - -
14/08/2019 22:10 17.5 97 - - - - 0.0 - - - - - -
14/08/2019 22:20 17.4 97 - - - - 0.0 - - - - - -
14/08/2019 22:30 17.3 97 - - - - 0.0 - - - - - -
14/08/2019 22:40 17.4 97 - - - - 0.0 - - - - - -
14/08/2019 22:50 17.4 97 - - - - 0.0 - - - - - -
14/08/2019 23:00 17.4 98 - - - - 0.0 - - - - - -
14/08/2019 23:10 17.4 98 - - - - 0.0 - - - - - -
14/08/2019 23:20 17.5 98 - - - - 0.0 - - - - - -
14/08/2019 23:30 17.5 98 - - - - 0.0 - - - - - -
14/08/2019 23:40 17.4 98 - - - - 0.0 - - - - - -
14/08/2019 23:50 17.4 98 - - - - 0.0 - - - - - -
Anterior Página 1 de 1 Siguiente

NOTA: Tipo de datos según el color:
   - Valores diarios o 10 minutos correctos
   - Valores diarios calculados a partir de un número de datos 10 minutos menor que 144 y mayor que 120, o de un número de datos semihorarios menor que 48 y mayor que 40 (caso de las estaciones de Riegos de Navarra y del MARM)
   - Valores diez minutos estimados


Contacto        Enlaces        Aviso legal